Decoded Metar for MDSD (SANTO DOMINGO in DOMINICAN REPUBLIC) (IATA:SDQ) | Meteo·Mobile Aviation Weather
aviador You're here:

MDSD Decoded Metar

SANTO DOMINGO in DOMINICAN REPUBLIC
Report Time2018-12-14 23:00:00
UTC Time2018-12-14 23:29:58
Flight Rules vfr VFR
Wind130° at 06 kt
W.Decomp.*RWY 17: 5.2 kt HW 2.9 kt LCW
W.Rank130° ranks 8
Current wind is below 130° avg. (7.4)
Visibility9999 m
Phenomena:N/A
Clouds:Few 018 Hf
Expected CloudBase > 2,000 ft AGL from Temp-Dew spread
CeilingNone
Temp27°C (ISA +12)
Dew Point22°C (74% RH)
Heat Index29.2°C
QNH1019 hPa
Density Alt1,601 ft
Elevation59 ft
Report Wrong Elevation
Raw Report
MDSD 142300Z 13006KT 9999 FEW018CB FEW018 27/22 Q1019 CB/S=

Extra information for MDSD:More info

Metar Taf Metar & Taf Last 4 Metars F.Rules Stats Wind Profile Meteogram Temp Stats Airport Information Weather charts Add Link Nearby VenuesMetar ALERT Operation Metar Decoded Social comments